Kezdőlap
METAR-TAF:

METAR-TAF

Repülőterek :

Viktória-vízesés, Zimbabwe

földrajzi szélesség: 18-06S, földrajzi hosszúság: 025-51E, magasság: 1061 m

Jelenlegi meteorológiai megfigyelések

A jelentés 18 órával és 32 perccel ezelõtt készült, 06:00 UTC
Keleti szél 21 kt
Hőmérséklet 19°C
Páratartalom 56%
Légköri nyomás 1024 hPa
Látótávolság 10 km, vagy több
felhőtlen 1500 m magasságban, és nincs gomolyfelhõ

METAR: FVFA 220600Z 10021KT CAVOK 19/10 Q1024 NOSIG

Idő: 02:32 (00:32 UTC)

Előrejelzés

A jelentés 20 órával és 32 perccel ezelõtt készült, 04:00 UTC
Az előrejelzés 22-én 06 óra UTC és 23-én 12 óra UTC között érvényes
Keleti szél 12 kt
Látótávolság 10 km, vagy több
felhőtlen 1500 m magasságban, és nincs gomolyfelhõ
22-én 07 óra UTC és 22-én 11 óra UTC között ideiglenes
Szórványos felhőzet 4000 lábon

TAF: FVFA 220400Z 2206/2312 09012KT CAVOK TEMPO 2207/2211 SCT040

Meteorológiai megfigyelések és előrejelzések több, mint 4000 repülőtéren (METAR és TAF jelentéseket).

A térképen piros és sárga pontok jelzik az elérhető meteorológiai állomásokat.

Mozgassa az egeret a pont fölött, hogy megjelenjen az állomás neve.

Azután kattintson az időjárási megfigyelések és előrejelzések megtekintéséhez.

A térkép megváltoztatása: kattintson a fekete keresztel jelölt zöld gombra ráközelítéshez, a vonallal jelölt zöld gombra távolításhoz, vagy a zöld nyilakra a szomszédos térképek eléréséhez.


METAR-TAF: